»·PEaware :: WAT306 P19-A20

WAT306 :: P19-A20

FLIGHT INFORMATION

Flight Status: Arrived
Operator:
Walker Air Transport
More flights by this operator :: More flights under this callsign
Pilot: Ethan S. (29221)
Aircraft: SOCATA TBM-900
(TBM9)
More flights by this aircraft type
Origin: P19 Stellar
United States
Destination: A20 Sun Valley
United States
More flights between these airports :: More routes between these airports
Route:
File this flight plan on PilotEdge
Remarks:
Altitude:
(Current/Filed)
8,500ft
Speed:
(Current/Filed)
250kts
Departed: 13-Oct-20 12:12 PM
Arrived: 13-Oct-20 01:02 PM
Distance/Time
Traveled:
167nm/0:50
Distance/Time
To Go:
Arrived

Flight Plot

Page will automatically refresh every two minutes.

Flight plan parsing failed; only flown route is shown


Map Options




Map Legend


Flown Route
Filed Route
Departure Airport
Arrival Airport
Navaid (VOR, NDB)
Fix

Horizontal Profiles

Position Reports

Time Latitude Longitude Heading Altitude Ground
Speed
13-Oct-20 12:07 33.298918 -111.916172 181 1174ft 0kts
13-Oct-20 12:08 33.298918 -111.916172 181 1174ft 0kts
13-Oct-20 12:09 33.296034 -111.915989 180 1174ft 10kts
13-Oct-20 12:10 33.293666 -111.915593 78 1174ft 7kts
13-Oct-20 12:11 33.316304 -111.915264 350 1564ft 143kts
13-Oct-20 12:12 33.311793 -111.947827 203 3574ft 139kts
13-Oct-20 12:13 33.274020 -111.974531 209 4543ft 195kts
13-Oct-20 12:14 33.220203 -112.012699 210 4498ft 232kts
13-Oct-20 12:15 33.165232 -112.051213 210 4491ft 214kts
13-Oct-20 12:16 33.138662 -112.103923 267 5842ft 157kts
13-Oct-20 12:17 33.136969 -112.153559 269 8033ft 146kts
13-Oct-20 12:18 33.135794 -112.204086 269 10388ft 151kts
13-Oct-20 12:19 33.134653 -112.256165 269 12503ft 166kts
13-Oct-20 12:20 33.132963 -112.330684 268 12509ft 245kts
13-Oct-20 12:21 33.130906 -112.420389 268 12480ft 261kts
13-Oct-20 12:22 33.128712 -112.513909 268 12464ft 265kts
13-Oct-20 12:23 33.126453 -112.607108 268 12455ft 266kts
13-Oct-20 12:24 33.124138 -112.699604 268 12455ft 266kts
13-Oct-20 12:25 33.158651 -112.779843 305 12459ft 264kts
13-Oct-20 12:26 33.204443 -112.857399 304 12463ft 264kts
13-Oct-20 12:27 33.248444 -112.932105 304 12468ft 265kts
13-Oct-20 12:28 33.292900 -113.007740 304 12472ft 265kts
13-Oct-20 12:29 33.337080 -113.083061 304 12472ft 265kts
13-Oct-20 12:30 33.380827 -113.157791 304 12472ft 266kts
13-Oct-20 12:31 33.425282 -113.233887 304 12472ft 265kts
13-Oct-20 12:32 33.469981 -113.310560 304 12472ft 265kts
13-Oct-20 12:33 33.514661 -113.387359 304 12472ft 265kts
13-Oct-20 12:34 33.558757 -113.463313 304 12472ft 265kts
13-Oct-20 12:35 33.603156 -113.539947 304 12471ft 265kts
13-Oct-20 12:36 33.647399 -113.616475 304 12469ft 265kts
13-Oct-20 12:37 33.691894 -113.693599 304 12466ft 266kts
13-Oct-20 12:38 33.736064 -113.770321 304 12278ft 272kts
13-Oct-20 12:39 33.783157 -113.852316 304 10942ft 293kts
13-Oct-20 12:40 33.830632 -113.935145 304 9598ft 281kts
13-Oct-20 12:41 33.877787 -114.013721 324 8409ft 271kts
13-Oct-20 12:42 33.946615 -114.048202 337 8448ft 248kts
13-Oct-20 12:43 34.012276 -114.079836 337 8450ft 244kts
13-Oct-20 12:44 34.077856 -114.111485 337 8453ft 243kts
13-Oct-20 12:45 34.142474 -114.142724 337 8454ft 243kts
13-Oct-20 12:46 34.206743 -114.173844 337 8454ft 243kts
13-Oct-20 12:47 34.270911 -114.204967 337 8454ft 243kts
13-Oct-20 12:48 34.335421 -114.236306 337 8454ft 243kts
13-Oct-20 12:49 34.399617 -114.267546 337 8454ft 243kts
13-Oct-20 12:50 34.463535 -114.298701 337 8454ft 243kts
13-Oct-20 12:51 34.527628 -114.329993 337 8454ft 243kts
13-Oct-20 12:52 34.591532 -114.361246 337 8455ft 243kts
13-Oct-20 12:53 34.655711 -114.392684 337 8463ft 243kts
13-Oct-20 12:54 34.720465 -114.424539 336 7652ft 237kts
13-Oct-20 12:55 34.778583 -114.460473 326 6079ft 223kts
13-Oct-20 12:56 34.831736 -114.503694 326 4514ft 220kts
13-Oct-20 12:57 34.884076 -114.546245 326 2960ft 218kts
13-Oct-20 12:58 34.931869 -114.565275 0 2157ft 137kts
13-Oct-20 12:59 34.961931 -114.565108 1 1418ft 90kts
13-Oct-20 13:00 34.987641 -114.565094 1 997ft 85kts
13-Oct-20 13:01 35.004973 -114.565220 273 709ft 5kts
13-Oct-20 13:02 35.007859 -114.565472 0 718ft 13kts
13-Oct-20 13:03 35.009032 -114.565990 0 718ft 0kts
13-Oct-20 13:04 35.009032 -114.565990 0 718ft 0kts

Navigation Log

Ident Type
Flight plan parsing failed, navigation log unavailable